createdAt,value
2018-06-17T00:00:06.201Z,19.27
2018-06-17T00:01:06.219Z,19.27
2018-06-17T00:02:06.244Z,19.32
2018-06-17T00:03:06.265Z,19.25
2018-06-17T00:04:06.305Z,19.27
2018-06-17T00:05:06.323Z,19.25
2018-06-17T00:06:06.346Z,19.23
2018-06-17T00:07:06.374Z,19.30
2018-06-17T00:08:06.399Z,19.39
2018-06-17T00:09:06.430Z,19.27
2018-06-17T00:10:06.448Z,19.35
2018-06-17T00:11:06.479Z,19.28
2018-06-17T00:12:06.513Z,19.31
2018-06-17T00:13:06.529Z,19.38
2018-06-17T00:14:06.554Z,19.47
2018-06-17T00:15:06.579Z,19.53
2018-06-17T00:16:06.607Z,19.47
2018-06-17T00:17:06.642Z,19.53
2018-06-17T00:18:06.658Z,19.53
2018-06-17T00:19:06.689Z,19.53
2018-06-17T00:20:06.714Z,19.53
2018-06-17T00:21:06.740Z,19.53
2018-06-17T00:22:06.771Z,19.57
2018-06-17T00:23:06.789Z,19.58
2018-06-17T00:24:06.818Z,19.70
2018-06-17T00:25:06.843Z,19.57
2018-06-17T00:26:06.876Z,19.70
2018-06-17T00:27:06.898Z,19.61
2018-06-17T00:28:06.925Z,19.67
2018-06-17T00:29:06.951Z,19.67
2018-06-17T00:30:06.978Z,19.67
2018-06-17T00:31:07.003Z,19.65
2018-06-17T00:32:07.028Z,19.68
2018-06-17T00:33:07.059Z,19.67
2018-06-17T00:34:07.094Z,19.68
2018-06-17T00:35:07.111Z,19.71
2018-06-17T00:36:07.137Z,19.64
2018-06-17T00:37:07.167Z,19.62
2018-06-17T00:38:07.187Z,19.67
2018-06-17T00:39:07.270Z,19.55
2018-06-17T00:40:07.241Z,19.60
2018-06-17T00:41:07.270Z,19.70
2018-06-17T00:42:07.296Z,19.64
2018-06-17T00:43:07.317Z,19.65
2018-06-17T00:44:07.343Z,19.70
2018-06-17T00:45:07.377Z,19.80
2018-06-17T00:46:07.408Z,19.71
2018-06-17T00:47:07.423Z,19.70
2018-06-17T00:48:07.453Z,19.68
2018-06-17T00:49:07.481Z,19.71
2018-06-17T00:50:07.503Z,19.65
2018-06-17T00:51:07.533Z,19.58
2018-06-17T00:52:07.561Z,19.57
2018-06-17T00:53:07.582Z,19.49
2018-06-17T00:54:07.609Z,19.40
2018-06-17T00:55:07.639Z,19.53
2018-06-17T00:56:07.662Z,19.35
2018-06-17T00:57:07.696Z,19.32
2018-06-17T00:58:07.717Z,19.38
2018-06-17T00:59:07.740Z,19.42
2018-06-17T01:00:07.773Z,19.38
2018-06-17T01:01:07.793Z,19.39
2018-06-17T01:02:07.821Z,19.25
2018-06-17T01:03:07.851Z,19.24
2018-06-17T01:04:07.872Z,19.24
2018-06-17T01:05:07.904Z,19.24
2018-06-17T01:06:07.928Z,19.24
2018-06-17T01:07:07.952Z,19.24
2018-06-17T01:08:07.979Z,19.12
2018-06-17T01:09:08.006Z,19.06
2018-06-17T01:10:08.031Z,18.74
2018-06-17T01:11:08.055Z,18.75
2018-06-17T01:12:08.081Z,18.59
2018-06-17T01:13:08.115Z,18.60
2018-06-17T01:14:08.136Z,18.49
2018-06-17T01:15:08.164Z,18.60
2018-06-17T01:16:08.186Z,18.57
2018-06-17T01:17:08.220Z,18.39
2018-06-17T01:18:08.245Z,18.36
2018-06-17T01:19:08.266Z,18.29
2018-06-17T01:20:08.291Z,18.29
2018-06-17T01:21:08.325Z,18.39
2018-06-17T01:22:08.339Z,18.32
2018-06-17T01:23:08.365Z,18.32
2018-06-17T01:24:08.395Z,18.32
2018-06-17T01:25:08.420Z,18.29
2018-06-17T01:26:08.445Z,18.38
2018-06-17T01:27:08.474Z,18.31
2018-06-17T01:28:08.495Z,18.21
2018-06-17T01:29:08.520Z,18.13
2018-06-17T01:30:08.558Z,18.17
2018-06-17T01:31:08.577Z,18.20
2018-06-17T01:32:08.603Z,18.14
2018-06-17T01:33:08.625Z,18.17
2018-06-17T01:34:08.655Z,18.05
2018-06-17T01:35:08.680Z,17.99
2018-06-17T01:36:08.702Z,18.04
2018-06-17T01:37:08.730Z,18.11
2018-06-17T01:38:08.753Z,18.04
2018-06-17T01:39:08.783Z,17.98
2018-06-17T01:40:08.804Z,18.04
2018-06-17T01:41:08.830Z,18.19
2018-06-17T01:42:08.855Z,18.16
2018-06-17T01:43:08.884Z,18.17
2018-06-17T01:44:08.910Z,18.07
2018-06-17T01:45:08.938Z,17.98
2018-06-17T01:46:08.965Z,18.07
2018-06-17T01:47:08.988Z,18.07
2018-06-17T01:48:09.009Z,18.05
2018-06-17T01:49:09.041Z,17.99
2018-06-17T01:50:09.065Z,18.05
2018-06-17T01:51:09.093Z,17.99
2018-06-17T01:52:09.115Z,18.02
2018-06-17T01:53:09.140Z,17.98
2018-06-17T01:54:09.170Z,18.04
2018-06-17T01:55:09.194Z,17.98
2018-06-17T01:56:09.219Z,17.89
2018-06-17T01:57:09.243Z,17.98
2018-06-17T01:58:09.269Z,17.86
2018-06-17T01:59:09.301Z,17.91
2018-06-17T02:00:09.326Z,17.92
2018-06-17T02:01:09.350Z,17.91
2018-06-17T02:02:09.373Z,18.01
2018-06-17T02:03:09.399Z,18.11
2018-06-17T02:04:09.423Z,18.02
2018-06-17T02:05:09.450Z,18.19
2018-06-17T02:06:09.478Z,18.25
2018-06-17T02:07:09.497Z,18.25
2018-06-17T02:08:09.529Z,18.16
2018-06-17T02:09:09.552Z,18.19
2018-06-17T02:10:09.582Z,18.16
2018-06-17T02:11:09.603Z,18.14
2018-06-17T02:12:09.629Z,18.26
2018-06-17T02:13:09.657Z,18.28
2018-06-17T02:14:09.682Z,18.20
2018-06-17T02:15:09.708Z,18.26
2018-06-17T02:16:09.736Z,18.19
2018-06-17T02:17:09.761Z,18.34
2018-06-17T02:18:09.791Z,18.35
2018-06-17T02:19:09.810Z,18.26
2018-06-17T02:20:09.838Z,18.28
2018-06-17T02:21:09.861Z,18.17
2018-06-17T02:22:09.896Z,18.32
2018-06-17T02:23:09.918Z,18.25
2018-06-17T02:24:09.945Z,18.31
2018-06-17T02:25:09.974Z,18.28
2018-06-17T02:26:10.006Z,18.32
2018-06-17T02:27:10.017Z,18.31
2018-06-17T02:28:10.049Z,18.28
2018-06-17T02:29:10.072Z,18.39
2018-06-17T02:30:10.098Z,18.28
2018-06-17T02:31:10.125Z,18.29
2018-06-17T02:32:10.148Z,18.34
2018-06-17T02:33:10.177Z,18.35
2018-06-17T02:34:10.203Z,18.29
2018-06-17T02:35:10.231Z,18.23
2018-06-17T02:36:10.256Z,18.35
2018-06-17T02:37:10.285Z,18.36
2018-06-17T02:38:10.313Z,18.47
2018-06-17T02:39:10.333Z,18.49
2018-06-17T02:40:10.358Z,18.36
2018-06-17T02:41:10.392Z,18.29
2018-06-17T02:42:10.414Z,18.42
2018-06-17T02:43:10.438Z,18.20
2018-06-17T02:44:10.463Z,18.35
2018-06-17T02:45:10.494Z,18.28
2018-06-17T02:46:10.518Z,18.26
2018-06-17T02:47:10.542Z,18.21
2018-06-17T02:48:10.568Z,18.16
2018-06-17T02:49:10.592Z,18.16
2018-06-17T02:50:10.624Z,18.19
2018-06-17T02:51:10.641Z,18.11
2018-06-17T02:52:10.676Z,18.07
2018-06-17T02:53:10.702Z,18.05
2018-06-17T02:54:10.728Z,18.05
2018-06-17T02:55:10.750Z,17.99
2018-06-17T02:56:10.773Z,17.94
2018-06-17T02:57:10.804Z,17.95
2018-06-17T02:58:10.834Z,17.92
2018-06-17T02:59:10.851Z,17.94
2018-06-17T03:00:10.881Z,17.94
2018-06-17T03:01:10.909Z,17.83
2018-06-17T03:02:10.931Z,17.92
2018-06-17T03:03:10.957Z,17.94
2018-06-17T03:04:10.982Z,17.95
2018-06-17T03:05:11.011Z,18.04
2018-06-17T03:06:11.037Z,18.09
2018-06-17T03:07:11.060Z,18.13
2018-06-17T03:08:11.086Z,18.25
2018-06-17T03:09:11.118Z,18.23
2018-06-17T03:10:11.142Z,18.28
2018-06-17T03:11:11.165Z,18.38
2018-06-17T03:12:11.194Z,18.28
2018-06-17T03:13:11.216Z,18.35
2018-06-17T03:14:11.243Z,18.38
2018-06-17T03:15:11.270Z,18.39
2018-06-17T03:16:11.296Z,18.41
2018-06-17T03:17:11.319Z,18.41
2018-06-17T03:18:11.353Z,18.36
2018-06-17T03:19:11.379Z,18.28
2018-06-17T03:20:11.399Z,18.28
2018-06-17T03:21:11.424Z,18.39
2018-06-17T03:22:11.459Z,18.31
2018-06-17T03:23:11.478Z,18.34
2018-06-17T03:24:11.507Z,18.35
2018-06-17T03:25:11.532Z,18.32
2018-06-17T03:26:11.577Z,18.34
2018-06-17T03:27:11.585Z,18.28
2018-06-17T03:28:11.610Z,18.35
2018-06-17T03:29:11.634Z,18.34
2018-06-17T03:30:11.663Z,18.32
2018-06-17T03:31:11.686Z,18.20
2018-06-17T03:32:11.714Z,18.34
2018-06-17T03:33:11.740Z,18.36
2018-06-17T03:34:11.769Z,18.20
2018-06-17T03:35:11.791Z,18.21
2018-06-17T03:36:11.814Z,18.34
2018-06-17T03:37:11.846Z,18.31
2018-06-17T03:38:11.866Z,18.35
2018-06-17T03:39:11.898Z,18.35
2018-06-17T03:40:11.923Z,18.23
2018-06-17T03:41:11.944Z,18.28
2018-06-17T03:42:11.979Z,18.36
2018-06-17T03:43:11.999Z,18.21
2018-06-17T03:44:12.029Z,18.34
2018-06-17T03:45:12.053Z,18.26
2018-06-17T03:46:12.073Z,18.20
2018-06-17T03:47:12.108Z,18.19
2018-06-17T03:48:12.132Z,18.17
2018-06-17T03:49:12.153Z,18.17
2018-06-17T03:50:12.183Z,18.21
2018-06-17T03:51:12.205Z,18.17
2018-06-17T03:52:12.233Z,18.26
2018-06-17T03:53:12.263Z,18.19
2018-06-17T03:54:12.284Z,18.34
2018-06-17T03:55:12.313Z,18.21
2018-06-17T03:56:12.336Z,18.29
2018-06-17T03:57:12.372Z,18.28
2018-06-17T03:58:12.397Z,18.21
2018-06-17T03:59:12.418Z,18.32
2018-06-17T04:00:12.438Z,18.26
2018-06-17T04:01:12.464Z,18.23
2018-06-17T04:02:12.493Z,18.36
2018-06-17T04:03:12.516Z,18.29
2018-06-17T04:04:12.648Z,18.34
2018-06-17T04:05:12.572Z,18.34
2018-06-17T04:06:12.599Z,18.36
2018-06-17T04:07:12.618Z,18.19
2018-06-17T04:08:12.648Z,18.17
2018-06-17T04:09:12.675Z,18.25
2018-06-17T04:10:12.698Z,18.19
2018-06-17T04:11:12.728Z,18.23
2018-06-17T04:12:12.747Z,18.11
2018-06-17T04:13:12.778Z,18.16
2018-06-17T04:14:12.803Z,18.20
2018-06-17T04:15:12.828Z,18.25
2018-06-17T04:16:12.862Z,18.17
2018-06-17T04:17:12.877Z,18.14
2018-06-17T04:18:12.907Z,18.16
2018-06-17T04:19:12.932Z,18.19
2018-06-17T04:20:12.957Z,18.16
2018-06-17T04:21:12.982Z,18.14
2018-06-17T04:22:13.007Z,18.17
2018-06-17T04:23:13.035Z,18.16
2018-06-17T04:24:13.057Z,18.01
2018-06-17T04:25:13.082Z,18.05
2018-06-17T04:26:13.115Z,18.05
2018-06-17T04:27:13.137Z,18.02
2018-06-17T04:28:13.166Z,18.17
2018-06-17T04:29:13.186Z,18.16
2018-06-17T04:30:13.216Z,18.14
2018-06-17T04:31:13.237Z,18.20
2018-06-17T04:32:13.268Z,18.21
2018-06-17T04:33:13.295Z,18.16
2018-06-17T04:34:13.316Z,18.05
2018-06-17T04:35:13.346Z,18.07
2018-06-17T04:36:13.366Z,18.04
2018-06-17T04:37:13.392Z,18.01
2018-06-17T04:38:13.416Z,18.02
2018-06-17T04:39:13.449Z,18.02
2018-06-17T04:40:13.471Z,18.02
2018-06-17T04:41:13.495Z,18.01
2018-06-17T04:42:13.522Z,18.09
2018-06-17T04:43:13.546Z,18.05
2018-06-17T04:44:13.570Z,18.07
2018-06-17T04:45:13.600Z,18.04
2018-06-17T04:46:13.624Z,17.98
2018-06-17T04:47:13.656Z,17.95
2018-06-17T04:48:13.677Z,17.98
2018-06-17T04:49:13.701Z,17.96
2018-06-17T04:50:13.725Z,17.98
2018-06-17T04:51:13.750Z,18.01
2018-06-17T04:52:13.779Z,17.96
2018-06-17T04:53:13.809Z,17.94
2018-06-17T04:54:13.835Z,18.02
2018-06-17T04:55:13.859Z,17.92
2018-06-17T04:56:13.886Z,18.01
2018-06-17T04:57:13.910Z,18.02
2018-06-17T04:58:13.934Z,17.98
2018-06-17T04:59:13.958Z,17.98
2018-06-17T05:00:13.985Z,18.01
2018-06-17T05:01:14.013Z,17.98
2018-06-17T05:02:14.038Z,17.94
2018-06-17T05:03:14.061Z,17.96
2018-06-17T05:04:14.087Z,18.05
2018-06-17T05:05:14.164Z,18.09
2018-06-17T05:06:14.143Z,18.02
2018-06-17T05:07:14.163Z,18.05
2018-06-17T05:08:14.194Z,17.96
2018-06-17T05:09:14.216Z,18.02
2018-06-17T05:10:14.240Z,18.02
2018-06-17T05:11:14.265Z,18.04
2018-06-17T05:12:14.295Z,17.99
2018-06-17T05:13:14.319Z,18.02
2018-06-17T05:14:14.344Z,17.99
2018-06-17T05:15:14.366Z,18.16
2018-06-17T05:16:14.391Z,18.21
2018-06-17T05:17:14.425Z,18.29
2018-06-17T05:18:14.449Z,18.28
2018-06-17T05:19:14.469Z,18.25
2018-06-17T05:20:14.504Z,18.23
2018-06-17T05:21:14.519Z,18.29
2018-06-17T05:22:14.550Z,18.36
2018-06-17T05:23:14.575Z,18.32
2018-06-17T05:24:14.605Z,18.36
2018-06-17T05:25:14.625Z,18.39
2018-06-17T05:26:14.650Z,18.41
2018-06-17T05:27:14.675Z,18.51
2018-06-17T05:28:14.705Z,18.56
2018-06-17T05:29:14.734Z,18.65
2018-06-17T05:30:14.758Z,18.68
2018-06-17T05:31:14.779Z,18.74
2018-06-17T05:32:14.805Z,18.74
2018-06-17T05:33:14.829Z,18.75
2018-06-17T05:34:14.866Z,18.86
2018-06-17T05:35:14.889Z,18.78
2018-06-17T05:36:14.909Z,18.79
2018-06-17T05:37:14.933Z,18.75
2018-06-17T05:38:14.960Z,18.72
2018-06-17T05:39:14.984Z,18.79
2018-06-17T05:40:15.024Z,18.91
2018-06-17T05:41:15.039Z,18.96
2018-06-17T05:42:15.064Z,19.01
2018-06-17T05:43:15.093Z,18.91
2018-06-17T05:44:15.114Z,18.99
2018-06-17T05:45:15.148Z,19.16
2018-06-17T05:46:15.189Z,19.20
2018-06-17T05:47:15.251Z,19.20
2018-06-17T05:48:15.223Z,19.12
2018-06-17T05:49:15.249Z,19.09
2018-06-17T05:50:15.274Z,19.10
2018-06-17T05:51:15.298Z,19.05
2018-06-17T05:52:15.331Z,19.15
2018-06-17T05:53:15.353Z,19.12
2018-06-17T05:54:15.378Z,19.09
2018-06-17T05:55:15.410Z,19.21
2018-06-17T05:56:15.433Z,19.25
2018-06-17T05:57:15.459Z,19.10
2018-06-17T05:58:15.493Z,19.13
2018-06-17T05:59:15.512Z,19.01
2018-06-17T06:00:15.540Z,19.09
2018-06-17T06:01:15.572Z,18.99
2018-06-17T06:02:15.597Z,18.97
2018-06-17T06:03:15.621Z,18.87
2018-06-17T06:04:15.642Z,18.86
2018-06-17T06:05:15.674Z,18.78
2018-06-17T06:06:15.702Z,18.78
2018-06-17T06:07:15.726Z,18.76
2018-06-17T06:08:15.747Z,18.79
2018-06-17T06:09:15.781Z,18.90
2018-06-17T06:10:15.854Z,18.90
2018-06-17T06:11:15.832Z,18.89
2018-06-17T06:12:15.856Z,19.05
2018-06-17T06:13:15.891Z,19.09
2018-06-17T06:14:15.913Z,19.12
2018-06-17T06:15:15.931Z,19.17
2018-06-17T06:16:15.961Z,19.27
2018-06-17T06:17:15.987Z,19.24
2018-06-17T06:18:16.021Z,19.17
2018-06-17T06:19:16.036Z,19.05
2018-06-17T06:20:16.067Z,18.89
2018-06-17T06:21:16.091Z,18.90
2018-06-17T06:22:16.116Z,19.01
2018-06-17T06:23:16.146Z,19.10
2018-06-17T06:24:16.174Z,19.15
2018-06-17T06:25:16.200Z,19.24
2018-06-17T06:26:16.238Z,19.25
2018-06-17T06:27:16.255Z,19.40
2018-06-17T06:28:16.277Z,19.45
2018-06-17T06:29:16.302Z,19.43
2018-06-17T06:30:16.333Z,19.53
2018-06-17T06:31:16.357Z,19.52
2018-06-17T06:32:16.382Z,19.49
2018-06-17T06:33:16.412Z,19.47
2018-06-17T06:34:16.437Z,19.40
2018-06-17T06:35:16.461Z,19.43
2018-06-17T06:36:16.492Z,19.27
2018-06-17T06:37:16.541Z,19.34
2018-06-17T06:38:16.547Z,19.47
2018-06-17T06:39:16.568Z,19.47
2018-06-17T06:40:16.597Z,19.47
2018-06-17T06:41:16.638Z,19.46
2018-06-17T06:42:16.652Z,19.27
2018-06-17T06:43:16.677Z,19.15
2018-06-17T06:44:16.705Z,19.24
2018-06-17T06:45:16.734Z,19.23
2018-06-17T06:46:16.755Z,19.20
2018-06-17T06:47:16.780Z,19.28
2018-06-17T06:48:16.809Z,19.17
2018-06-17T06:49:16.834Z,19.12
2018-06-17T06:50:16.864Z,19.17
2018-06-17T06:51:16.887Z,19.25
2018-06-17T06:52:16.918Z,19.28
2018-06-17T06:53:16.945Z,19.27
2018-06-17T06:54:16.988Z,19.23
2018-06-17T06:55:16.996Z,19.21
2018-06-17T06:56:17.020Z,19.32
2018-06-17T06:57:17.051Z,19.25
2018-06-17T06:58:17.078Z,19.30
2018-06-17T06:59:17.099Z,19.32
2018-06-17T07:00:17.136Z,19.24
2018-06-17T07:01:17.168Z,19.17
2018-06-17T07:02:17.184Z,19.25
2018-06-17T07:03:17.213Z,19.40
2018-06-17T07:04:17.238Z,19.40
2018-06-17T07:05:17.264Z,19.42
2018-06-17T07:06:17.291Z,19.58
2018-06-17T07:07:17.314Z,19.58
2018-06-17T07:08:17.344Z,19.60
2018-06-17T07:09:17.374Z,19.53
2018-06-17T07:10:17.394Z,19.45
2018-06-17T07:11:17.419Z,19.39
2018-06-17T07:12:17.450Z,19.23
2018-06-17T07:13:17.475Z,19.23
2018-06-17T07:14:17.500Z,19.23
2018-06-17T07:15:17.528Z,19.27
2018-06-17T07:16:17.554Z,19.34
2018-06-17T07:17:17.585Z,19.34
2018-06-17T07:18:17.611Z,19.24
2018-06-17T07:19:17.638Z,19.21
2018-06-17T07:20:17.658Z,19.35
2018-06-17T07:21:17.684Z,19.38
2018-06-17T07:22:17.716Z,19.39
2018-06-17T07:23:17.738Z,19.27
2018-06-17T07:24:17.768Z,19.20
2018-06-17T07:25:17.794Z,19.13
2018-06-17T07:26:17.818Z,19.21
2018-06-17T07:27:17.844Z,19.16
2018-06-17T07:28:17.878Z,19.25
2018-06-17T07:29:17.909Z,19.20
2018-06-17T07:30:17.928Z,19.12
2018-06-17T07:31:18.005Z,19.09
2018-06-17T07:32:17.982Z,19.10
2018-06-17T07:33:18.013Z,19.21
2018-06-17T07:34:18.037Z,19.27
2018-06-17T07:35:18.056Z,19.38
2018-06-17T07:36:18.087Z,19.42
2018-06-17T07:37:18.113Z,19.50
2018-06-17T07:38:18.138Z,19.57
2018-06-17T07:39:18.167Z,19.65
2018-06-17T07:40:18.192Z,19.75
2018-06-17T07:41:18.222Z,19.85
2018-06-17T07:42:18.243Z,19.83
2018-06-17T07:43:18.269Z,19.95
2018-06-17T07:44:18.297Z,20.13
2018-06-17T07:45:18.321Z,20.02
2018-06-17T07:46:18.356Z,19.83
2018-06-17T07:47:18.377Z,19.72
2018-06-17T07:48:18.404Z,19.71
2018-06-17T07:49:18.489Z,19.72
2018-06-17T07:50:18.458Z,19.60
2018-06-17T07:51:18.482Z,19.61
2018-06-17T07:52:18.518Z,19.58
2018-06-17T07:53:18.537Z,19.53
2018-06-17T07:54:18.566Z,19.43
2018-06-17T07:55:18.597Z,19.47
2018-06-17T07:56:18.622Z,19.70
2018-06-17T07:57:18.646Z,19.78
2018-06-17T07:58:18.675Z,19.79
2018-06-17T07:59:18.696Z,19.86
2018-06-17T08:00:18.722Z,19.87
2018-06-17T08:01:18.751Z,19.87
2018-06-17T08:02:18.784Z,19.89
2018-06-17T08:03:18.802Z,19.79
2018-06-17T08:04:18.850Z,19.72
2018-06-17T08:05:18.858Z,19.67
2018-06-17T08:06:18.885Z,19.75
2018-06-17T08:07:18.915Z,19.90
2018-06-17T08:08:18.939Z,19.90
2018-06-17T08:09:18.972Z,19.78
2018-06-17T08:10:18.993Z,19.76
2018-06-17T08:11:19.027Z,19.65
2018-06-17T08:12:19.047Z,19.65
2018-06-17T08:13:19.080Z,19.45
2018-06-17T08:14:19.101Z,19.46
2018-06-17T08:15:19.129Z,19.35
2018-06-17T08:16:19.156Z,19.35
2018-06-17T08:17:19.181Z,19.32
2018-06-17T08:18:19.205Z,19.34
2018-06-17T08:19:19.231Z,19.42
2018-06-17T08:20:19.261Z,19.47
2018-06-17T08:21:19.285Z,19.67
2018-06-17T08:22:19.322Z,19.80
2018-06-17T08:23:19.342Z,20.00
2018-06-17T08:24:19.366Z,20.12
2018-06-17T08:25:19.396Z,20.27
2018-06-17T08:26:19.425Z,20.35
2018-06-17T08:27:19.448Z,20.37
2018-06-17T08:28:19.484Z,20.50
2018-06-17T08:29:19.508Z,20.38
2018-06-17T08:30:19.527Z,20.48
2018-06-17T08:31:19.568Z,20.37
2018-06-17T08:32:19.581Z,20.25
2018-06-17T08:33:19.614Z,20.15
2018-06-17T08:34:19.640Z,20.20
2018-06-17T08:35:19.661Z,20.37
2018-06-17T08:36:19.691Z,20.22
2018-06-17T08:37:19.717Z,20.17
2018-06-17T08:38:19.740Z,20.27
2018-06-17T08:39:19.774Z,20.26
2018-06-17T08:40:19.796Z,20.26
2018-06-17T08:41:19.825Z,20.31
2018-06-17T08:42:19.854Z,20.41
2018-06-17T08:43:19.879Z,20.60
2018-06-17T08:44:19.904Z,20.58
2018-06-17T08:45:19.932Z,20.68
2018-06-17T08:46:19.964Z,20.61
2018-06-17T08:47:19.987Z,20.51
2018-06-17T08:48:20.015Z,20.71
2018-06-17T08:49:20.046Z,20.78
2018-06-17T08:50:20.065Z,20.87
2018-06-17T08:51:20.098Z,20.91
2018-06-17T08:52:20.121Z,20.79
2018-06-17T08:53:20.148Z,20.90
2018-06-17T08:54:20.234Z,20.90
2018-06-17T08:55:20.206Z,20.87
2018-06-17T08:56:20.235Z,20.83
2018-06-17T08:57:20.254Z,20.90
2018-06-17T08:58:20.284Z,20.93
2018-06-17T08:59:20.312Z,21.08
2018-06-17T09:00:20.343Z,21.15
2018-06-17T09:01:20.367Z,21.18
2018-06-17T09:02:20.396Z,21.06
2018-06-17T09:03:20.422Z,21.16
2018-06-17T09:04:20.456Z,21.15
2018-06-17T09:05:20.474Z,21.26
2018-06-17T09:06:20.504Z,21.27
2018-06-17T09:07:20.529Z,21.28
2018-06-17T09:08:20.562Z,21.18
2018-06-17T09:09:20.586Z,21.16
2018-06-17T09:10:20.617Z,21.24
2018-06-17T09:11:20.644Z,21.26
2018-06-17T09:12:20.708Z,21.22
2018-06-17T09:13:20.700Z,21.28
2018-06-17T09:14:20.723Z,21.28
2018-06-17T09:15:20.753Z,21.21
2018-06-17T09:16:20.788Z,21.18
2018-06-17T09:17:20.808Z,21.26
2018-06-17T09:18:20.832Z,21.00
2018-06-17T09:19:20.877Z,20.93
2018-06-17T09:20:20.901Z,20.93
2018-06-17T09:21:20.923Z,20.94
2018-06-17T09:22:20.946Z,21.05
2018-06-17T09:23:20.972Z,20.83
2018-06-17T09:24:20.999Z,20.97
2018-06-17T09:25:21.140Z,21.09
2018-06-17T09:26:21.077Z,21.06
2018-06-17T09:27:21.084Z,21.03
2018-06-17T09:28:21.116Z,21.06
2018-06-17T09:29:21.138Z,21.13
2018-06-17T09:30:21.172Z,20.97
2018-06-17T09:31:21.195Z,20.94
2018-06-17T09:32:21.321Z,20.96
2018-06-17T09:33:21.250Z,21.03
2018-06-17T09:34:21.279Z,21.08
2018-06-17T09:35:21.302Z,21.05
2018-06-17T09:36:21.328Z,21.06
2018-06-17T09:37:21.359Z,21.09
2018-06-17T09:38:21.394Z,21.09
2018-06-17T09:39:21.414Z,21.12
2018-06-17T09:40:21.446Z,21.16
2018-06-17T09:41:21.468Z,21.27
2018-06-17T09:42:21.499Z,21.49
2018-06-17T09:43:21.526Z,21.52
2018-06-17T09:44:21.566Z,21.49
2018-06-17T09:45:21.579Z,21.43
2018-06-17T09:46:21.602Z,21.36
2018-06-17T09:47:21.636Z,21.33
2018-06-17T09:48:21.657Z,21.24
2018-06-17T09:49:21.703Z,21.36
2018-06-17T09:50:21.722Z,21.59
2018-06-17T09:51:21.740Z,21.52
2018-06-17T09:52:21.771Z,21.67
2018-06-17T09:53:21.809Z,21.83
2018-06-17T09:54:21.830Z,22.02
2018-06-17T09:55:21.856Z,22.17
2018-06-17T09:56:21.883Z,22.14
2018-06-17T09:57:21.913Z,22.20
2018-06-17T09:58:21.942Z,22.27
2018-06-17T09:59:21.967Z,22.33
2018-06-17T10:00:21.993Z,22.15
2018-06-17T10:01:22.026Z,21.93
2018-06-17T10:02:22.052Z,22.04
2018-06-17T10:03:22.077Z,22.26
2018-06-17T10:04:22.103Z,22.31
2018-06-17T10:05:22.131Z,22.36
2018-06-17T10:06:22.159Z,22.41
2018-06-17T10:07:22.190Z,22.39
2018-06-17T10:08:22.216Z,22.61
2018-06-17T10:09:22.241Z,22.75
2018-06-17T10:10:22.286Z,22.76
2018-06-17T10:11:22.297Z,22.48
2018-06-17T10:12:22.331Z,22.48
2018-06-17T10:13:22.356Z,22.30
2018-06-17T10:14:22.386Z,22.19
2018-06-17T10:15:22.420Z,22.11
2018-06-17T10:16:22.438Z,22.06
2018-06-17T10:17:22.470Z,22.05
2018-06-17T10:18:22.495Z,21.96
2018-06-17T10:19:22.526Z,22.01
2018-06-17T10:20:22.554Z,22.12
2018-06-17T10:21:22.590Z,22.30
2018-06-17T10:22:22.615Z,22.26
2018-06-17T10:23:22.639Z,22.36
2018-06-17T10:24:22.666Z,22.26
2018-06-17T10:25:22.704Z,22.48
2018-06-17T10:26:22.721Z,22.54
2018-06-17T10:27:22.750Z,22.56
2018-06-17T10:28:22.783Z,22.36
2018-06-17T10:29:22.844Z,22.36
2018-06-17T10:30:22.839Z,22.33
2018-06-17T10:31:22.861Z,22.21
2018-06-17T10:32:22.894Z,22.30
2018-06-17T10:33:22.919Z,22.12
2018-06-17T10:34:22.949Z,22.08
2018-06-17T10:35:22.975Z,22.06
2018-06-17T10:36:23.001Z,22.26
2018-06-17T10:37:23.031Z,22.12
2018-06-17T10:38:23.059Z,22.26
2018-06-17T10:39:23.089Z,22.15
2018-06-17T10:40:23.114Z,22.26
2018-06-17T10:41:23.143Z,22.39
2018-06-17T10:42:23.174Z,22.69
2018-06-17T10:43:23.211Z,22.69
2018-06-17T10:44:23.228Z,22.54
2018-06-17T10:45:23.256Z,22.60
2018-06-17T10:46:23.284Z,22.67
2018-06-17T10:47:23.309Z,22.69
2018-06-17T10:48:23.342Z,22.70
2018-06-17T10:49:23.376Z,22.52
2018-06-17T10:50:23.463Z,22.36
2018-06-17T10:51:23.422Z,22.39
2018-06-17T10:52:23.457Z,22.57
2018-06-17T10:53:23.489Z,22.74
2018-06-17T10:54:23.519Z,22.75
2018-06-17T10:55:23.540Z,22.69
2018-06-17T10:56:23.566Z,22.97
2018-06-17T10:57:23.598Z,23.18
2018-06-17T10:58:23.626Z,23.38
2018-06-17T10:59:23.652Z,23.57
2018-06-17T11:00:23.684Z,23.72
2018-06-17T11:01:23.708Z,23.77
2018-06-17T11:02:23.738Z,23.23
2018-06-17T11:03:23.770Z,23.23
2018-06-17T11:04:23.797Z,22.91
2018-06-17T11:05:23.866Z,23.06
2018-06-17T11:06:23.857Z,23.44
2018-06-17T11:07:23.884Z,23.69
2018-06-17T11:08:23.924Z,23.87
2018-06-17T11:09:23.942Z,24.15
2018-06-17T11:10:23.972Z,24.30
2018-06-17T11:11:24.002Z,25.07
2018-06-17T11:12:24.033Z,25.91
2018-06-17T11:13:24.058Z,26.59
2018-06-17T11:14:24.088Z,27.39
2018-06-17T11:15:24.118Z,27.52
2018-06-17T11:16:24.147Z,27.95
2018-06-17T11:17:24.183Z,26.93
2018-06-17T11:18:24.212Z,26.27
2018-06-17T11:19:24.243Z,25.46
2018-06-17T11:20:24.273Z,24.90
2018-06-17T11:21:24.303Z,24.44
2018-06-17T11:22:24.343Z,24.71
2018-06-17T11:23:24.367Z,25.07
2018-06-17T11:24:24.408Z,25.64
2018-06-17T11:25:24.443Z,27.11
2018-06-17T11:26:24.468Z,26.78
2018-06-17T11:27:24.496Z,25.74
2018-06-17T11:28:24.530Z,26.06
2018-06-17T11:29:24.556Z,27.25
2018-06-17T11:30:24.587Z,28.58
2018-06-17T11:31:24.617Z,28.48
2018-06-17T11:32:24.650Z,28.38
2018-06-17T11:33:24.682Z,27.91
2018-06-17T11:34:24.716Z,27.23
2018-06-17T11:35:24.747Z,26.84
2018-06-17T11:36:24.777Z,26.12
2018-06-17T11:37:24.812Z,25.41
2018-06-17T11:38:24.851Z,24.79
2018-06-17T11:39:24.881Z,24.39
2018-06-17T11:40:24.902Z,23.68
2018-06-17T11:41:24.936Z,23.68
2018-06-17T11:42:24.971Z,23.72
2018-06-17T11:43:25.001Z,23.44
2018-06-17T11:44:25.031Z,23.52
2018-06-17T11:45:25.072Z,23.57
2018-06-17T11:46:25.094Z,23.57
2018-06-17T11:47:25.122Z,23.41
2018-06-17T11:48:25.152Z,23.63
2018-06-17T11:49:25.190Z,23.68
2018-06-17T11:50:25.219Z,23.96
2018-06-17T11:51:25.277Z,24.04
2018-06-17T11:52:25.282Z,24.49
2018-06-17T11:53:25.305Z,25.34
2018-06-17T11:54:25.336Z,25.05
2018-06-17T11:55:25.369Z,25.53
2018-06-17T11:56:25.406Z,25.27
2018-06-17T11:57:25.435Z,24.87
2018-06-17T11:58:25.456Z,24.86
2018-06-17T11:59:25.492Z,25.20
2018-06-17T12:00:25.521Z,24.86
2018-06-17T12:01:25.552Z,24.59
2018-06-17T12:02:25.593Z,24.34
2018-06-17T12:03:25.615Z,24.12
2018-06-17T12:04:25.647Z,24.06
2018-06-17T12:05:25.673Z,24.04
2018-06-17T12:06:25.710Z,24.15
2018-06-17T12:07:25.738Z,23.89
2018-06-17T12:08:25.778Z,23.68
2018-06-17T12:09:25.801Z,23.79
2018-06-17T12:10:25.828Z,23.93
2018-06-17T12:11:25.858Z,24.16
2018-06-17T12:12:25.890Z,23.93
2018-06-17T12:13:25.923Z,24.55
2018-06-17T12:14:25.959Z,25.53
2018-06-17T12:15:25.978Z,26.47
2018-06-17T12:16:26.006Z,26.72
2018-06-17T12:17:26.048Z,27.05
2018-06-17T12:18:26.075Z,27.58
2018-06-17T12:19:26.109Z,27.78
2018-06-17T12:20:26.131Z,28.01
2018-06-17T12:21:26.166Z,27.69
2018-06-17T12:22:26.196Z,27.95
2018-06-17T12:23:26.226Z,28.50
2018-06-17T12:24:26.255Z,29.26
2018-06-17T12:25:26.346Z,29.57
2018-06-17T12:26:26.334Z,29.63
2018-06-17T12:27:26.963Z,30.04
2018-06-17T12:28:26.387Z,29.37
2018-06-17T12:29:26.423Z,28.39
2018-06-17T12:30:26.466Z,27.52
2018-06-17T12:31:26.484Z,27.08
2018-06-17T12:32:26.514Z,26.19
2018-06-17T12:33:26.567Z,26.36
2018-06-17T12:34:26.586Z,26.34
2018-06-17T12:35:26.614Z,26.73
2018-06-17T12:36:26.654Z,27.16
2018-06-17T12:37:26.680Z,27.27
2018-06-17T12:38:26.717Z,25.90
2018-06-17T12:39:26.754Z,25.31
2018-06-17T12:40:26.790Z,25.19
2018-06-17T12:41:26.813Z,25.61
2018-06-17T12:42:26.844Z,26.04
2018-06-17T12:43:26.879Z,25.98
2018-06-17T12:44:26.912Z,26.09
2018-06-17T12:45:26.949Z,26.00
2018-06-17T12:46:26.973Z,25.67
2018-06-17T12:47:27.018Z,25.97
2018-06-17T12:48:27.044Z,26.50
2018-06-17T12:49:27.069Z,26.64
2018-06-17T12:50:27.108Z,26.97
2018-06-17T12:51:27.164Z,26.78
2018-06-17T12:52:27.176Z,26.00